Time;durP1;ratioP1;P1;durP2;ratioP2;P2;SDS_P1;SDS_P2;PMS_P1;PMS_P2;Temp;Humidity;BMP_temperature;BMP_pressure;BME280_temperature;BME280_humidity;BME280_pressure;Samples;Min_cycle;Max_cycle;Signal;HPM_P1;HPM_P2
2022/08/12 00:42:59;;;;;;;6.85;4.50;;;;;;;21.36;52.07;101060.59;696742;28;4866;-44
2022/08/12 00:43:22;;;;;;;4.88;4.32;;;;;;;21.36;51.57;101060.59;699820;28;1054;-43
2022/08/12 00:43:43;;;;;;;5.93;4.28;;;;;;;21.36;51.21;101059.72;699155;28;1282;-43
2022/08/12 00:44:06;;;;;;;5.50;3.97;;;;;;;21.37;52.07;101058.81;696644;28;1135;-44
2022/08/12 00:44:26;;;;;;;5.82;4.47;;;;;;;21.36;51.97;101057.06;696593;28;1432;-43
2022/08/12 00:44:46;;;;;;;5.90;4.37;;;;;;;21.34;52.38;101067.78;696411;28;1387;-43
2022/08/12 00:45:08;;;;;;;6.00;4.47;;;;;;;21.34;52.24;101062.47;696365;28;1198;-44
2022/08/12 00:46:29;;;;;;;6.90;4.45;;;;;;;21.35;53.05;101058.00;696911;28;1213;-43
2022/08/12 00:46:59;;;;;;;6.90;4.38;;;;;;;21.30;53.17;101066.19;699217;28;1607;-44
2022/08/12 00:47:20;;;;;;;7.40;4.38;;;;;;;21.30;52.16;101055.53;699546;28;1942;-44
2022/08/12 00:47:41;;;;;;;6.57;4.40;;;;;;;21.34;52.37;101062.47;699828;28;1091;-46
2022/08/12 00:48:02;;;;;;;4.88;4.35;;;;;;;21.34;53.05;101057.16;700254;28;1056;-43
2022/08/12 00:48:23;;;;;;;4.70;4.20;;;;;;;21.32;52.92;101059.00;696978;28;1309;-44
2022/08/12 00:48:45;;;;;;;6.97;4.35;;;;;;;21.31;53.30;101056.41;693437;28;4506;-43
2022/08/12 00:49:05;;;;;;;7.10;4.47;;;;;;;21.28;53.32;101057.44;693817;28;1380;-44
2022/08/12 00:49:27;;;;;;;6.18;4.53;;;;;;;21.27;53.85;101059.19;693969;28;1294;-43
2022/08/12 00:49:48;;;;;;;5.47;4.38;;;;;;;21.34;53.52;101059.81;693977;28;1108;-45
2022/08/12 00:50:17;;;;;;;6.37;4.50;;;;;;;21.32;53.57;101053.66;692131;28;1295;-45
2022/08/12 00:50:41;;;;;;;6.28;4.20;;;;;;;21.31;53.76;101059.94;694791;28;1269;-43
2022/08/12 00:51:03;;;;;;;6.50;4.10;;;;;;;21.32;52.39;101055.47;697585;28;1353;-44
2022/08/12 00:52:04;;;;;;;6.05;4.47;;;;;;;21.29;53.55;101060.94;696856;28;1218;-44
2022/08/12 00:52:06;;;;;;;5.83;4.27;;;;;;;21.30;51.71;101058.22;697667;28;4741;-43
2022/08/12 00:52:26;;;;;;;7.00;4.75;;;;;;;21.30;51.56;101060.88;699325;28;1427;-45
2022/08/12 00:52:50;;;;;;;6.07;4.57;;;;;;;21.29;52.52;101061.78;700363;28;1194;-44
2022/08/12 00:53:11;;;;;;;6.18;4.72;;;;;;;21.29;52.17;101053.81;696596;28;1021;-44
2022/08/12 00:53:32;;;;;;;6.25;4.45;;;;;;;21.29;52.08;101059.13;695892;28;1189;-44
2022/08/12 00:53:53;;;;;;;6.10;4.47;;;;;;;21.39;54.33;101062.25;696920;28;1268;-45
2022/08/12 00:54:16;;;;;;;7.63;4.80;;;;;;;21.36;52.53;101060.59;697070;28;1134;-44
2022/08/12 00:54:43;;;;;;;5.43;4.40;;;;;;;21.32;52.77;101058.13;696386;28;1217;-43
2022/08/12 00:55:04;;;;;;;6.90;4.60;;;;;;;21.29;52.57;101063.59;697324;28;4862;-43
2022/08/12 00:55:25;;;;;;;5.70;4.40;;;;;;;21.26;52.72;101061.94;699858;28;1300;-44
2022/08/12 00:55:46;;;;;;;6.03;4.40;;;;;;;21.24;52.56;101063.81;697205;28;1249;-43
2022/08/12 00:56:06;;;;;;;6.40;4.40;;;;;;;21.23;52.38;101059.41;695827;28;1094;-43
2022/08/12 00:56:28;;;;;;;6.13;4.30;;;;;;;21.22;52.72;101060.34;696211;28;1253;-44
2022/08/12 00:56:49;;;;;;;5.63;4.20;;;;;;;21.18;52.76;101064.06;696917;28;1239;-43
2022/08/12 00:57:14;;;;;;;5.80;4.40;;;;;;;21.17;52.21;101063.19;696542;28;1587;-44
2022/08/12 00:57:35;;;;;;;5.95;4.30;;;;;;;21.17;52.27;101063.19;694902;28;1201;-43
2022/08/12 00:57:56;;;;;;;6.38;4.40;;;;;;;21.16;52.07;101057.94;695670;28;4691;-44
2022/08/12 00:58:22;;;;;;;6.47;4.40;;;;;;;21.16;52.59;101064.13;693071;28;1155;-45
2022/08/12 00:58:49;;;;;;;7.38;4.40;;;;;;;21.16;52.30;101061.47;693227;28;996;-44
2022/08/12 00:59:10;;;;;;;6.60;4.55;;;;;;;21.17;52.71;101062.31;694441;28;1352;-44
2022/08/12 00:59:33;;;;;;;7.13;4.50;;;;;;;21.18;51.89;101069.38;695200;28;1056;-44
2022/08/12 01:00:04;;;;;;;7.13;4.57;;;;;;;21.18;52.34;101058.72;694711;28;1147;-43
2022/08/12 01:00:24;;;;;;;5.82;4.50;;;;;;;21.16;52.13;101057.94;694323;28;3542;-45
2022/08/12 01:00:45;;;;;;;6.07;4.60;;;;;;;21.19;52.24;101060.47;693951;28;4526;-43
2022/08/12 01:01:07;;;;;;;5.53;4.40;;;;;;;21.23;51.47;101060.25;693337;28;1293;-44
2022/08/12 01:01:29;;;;;;;5.32;4.18;;;;;;;21.22;52.78;101065.66;693314;28;1245;-43
2022/08/12 01:01:53;;;;;;;6.15;4.38;;;;;;;21.21;52.62;101063.91;693963;28;1337;-44
2022/08/12 01:02:39;;;;;;;5.80;4.30;;;;;;;21.20;52.18;101064.88;693410;28;1154;-44
2022/08/12 01:03:01;;;;;;;6.68;4.30;;;;;;;21.23;51.90;101059.41;697040;28;1272;-44
2022/08/12 01:03:24;;;;;;;6.20;4.30;;;;;;;21.21;52.47;101062.13;696379;28;1091;-44
2022/08/12 01:11:30;;;;;;;6.30;4.40;;;;;;;21.17;52.46;101057.88;697130;28;1298;-43
2022/08/12 01:11:52;;;;;;;5.75;4.30;;;;;;;21.14;52.81;101060.66;694755;28;1340;-46
2022/08/12 01:12:13;;;;;;;5.93;4.60;;;;;;;21.12;53.80;101057.22;692664;28;1143;-43
2022/08/12 01:12:35;;;;;;;7.90;4.40;;;;;;;21.13;52.05;101061.59;693085;28;1282;-43
2022/08/12 01:12:57;;;;;;;6.35;4.28;;;;;;;21.14;52.66;101059.78;688556;28;4341;-43
2022/08/12 01:13:18;;;;;;;6.43;4.32;;;;;;;21.12;52.38;101062.53;688394;28;1107;-45
2022/08/12 01:13:45;;;;;;;6.78;4.38;;;;;;;21.10;51.16;101053.75;689685;28;1275;-43
2022/08/12 01:14:05;;;;;;;6.05;4.22;;;;;;;21.11;51.89;101062.59;692815;28;1315;-43
2022/08/12 01:14:27;;;;;;;5.78;4.47;;;;;;;21.11;51.87;101060.78;694855;28;1135;-44
2022/08/12 01:14:48;;;;;;;9.15;4.40;;;;;;;21.11;52.08;101054.63;696502;28;1281;-43
2022/08/12 01:15:11;;;;;;;5.65;4.40;;;;;;;21.10;52.08;101059.09;696648;28;1091;-43
2022/08/12 01:15:32;;;;;;;5.25;4.32;;;;;;;21.10;51.94;101064.41;697148;28;1120;-43
2022/08/12 01:15:55;;;;;;;5.38;4.40;;;;;;;21.09;52.04;101058.19;697908;28;4252;-45
2022/08/12 01:16:21;;;;;;;6.57;4.50;;;;;;;21.09;52.28;101062.66;699621;28;1122;-44
2022/08/12 01:16:41;;;;;;;6.15;4.30;;;;;;;21.09;52.04;101057.34;698896;28;1272;-44
2022/08/12 01:17:02;;;;;;;6.63;4.37;;;;;;;21.09;51.57;101060.00;699003;28;1298;-43
2022/08/12 01:17:24;;;;;;;6.00;4.50;;;;;;;21.07;52.01;101052.09;697913;28;1407;-44
2022/08/12 01:17:45;;;;;;;5.53;4.35;;;;;;;21.08;52.54;101063.59;696597;28;1370;-43
2022/08/12 01:18:05;;;;;;;6.28;4.60;;;;;;;21.08;52.17;101059.13;697484;28;1032;-45
2022/08/12 01:18:28;;;;;;;6.83;4.60;;;;;;;21.07;51.91;101057.41;699005;28;1387;-44
2022/08/12 01:18:53;;;;;;;6.75;4.40;;;;;;;21.06;51.96;101058.34;699746;28;4515;-44
2022/08/12 01:19:16;;;;;;;6.88;4.30;;;;;;;21.04;51.84;101059.31;695846;28;1295;-44
2022/08/12 01:19:36;;;;;;;6.63;4.60;;;;;;;21.04;51.59;101056.66;696174;28;1510;-44
2022/08/12 01:20:03;;;;;;;5.67;4.20;;;;;;;21.03;51.71;101057.59;696972;28;1122;-43
2022/08/12 01:20:37;;;;;;;5.75;4.43;;;;;;;21.03;51.52;101054.94;696742;28;1332;-46
2022/08/12 01:21:25;;;;;;;6.50;4.40;;;;;;;21.01;52.02;101060.31;697843;28;1036;-43
2022/08/12 01:22:01;;;;;;;5.97;4.38;;;;;;;21.01;52.01;101055.00;698200;28;4287;-43
2022/08/12 01:22:50;;;;;;;4.93;4.15;;;;;;;21.00;51.92;101052.41;699438;28;1054;-44
2022/08/12 01:23:26;;;;;;;5.80;4.15;;;;;;;20.97;52.01;101048.09;689834;28;1540;-43
2022/08/12 01:24:15;;;;;;;5.50;4.45;;;;;;;20.96;51.66;101051.66;700045;28;1132;-44
2022/08/12 01:24:52;;;;;;;7.38;4.40;;;;;;;20.96;52.17;101056.13;696052;28;1154;-44
2022/08/12 01:25:17;;;;;;;6.32;4.20;;;;;;;20.95;51.87;101055.28;694583;28;5218;-44
2022/08/12 01:25:43;;;;;;;5.55;4.22;;;;;;;20.96;52.38;101061.44;696798;28;1173;-43
2022/08/12 01:26:06;;;;;;;6.85;4.35;;;;;;;20.97;51.67;101057.88;696164;28;1273;-43
2022/08/12 01:26:27;;;;;;;5.72;4.20;;;;;;;20.96;51.64;101056.13;698026;28;4783;-44
2022/08/12 01:26:52;;;;;;;5.80;4.50;;;;;;;20.96;52.79;101059.63;700393;28;1476;-45
2022/08/12 01:27:14;;;;;;;5.38;4.35;;;;;;;20.98;51.89;101057.78;699257;28;1914;-45
2022/08/12 01:27:38;;;;;;;7.00;4.30;;;;;;;20.99;51.60;101054.22;699382;28;1317;-44
2022/08/12 01:28:01;;;;;;;5.97;4.30;;;;;;;20.99;51.38;101059.53;696506;28;4816;-43
2022/08/12 01:28:25;;;;;;;6.07;4.30;;;;;;;20.97;51.48;101055.22;696334;28;1193;-44
2022/08/12 01:28:48;;;;;;;6.57;4.30;;;;;;;20.96;51.89;101051.66;696502;28;1381;-44
2022/08/12 01:29:11;;;;;;;6.18;4.13;;;;;;;20.96;51.79;101056.13;696184;28;922;-44
2022/08/12 01:29:33;;;;;;;5.18;4.10;;;;;;;20.94;52.13;101064.16;696877;28;1051;-43
2022/08/12 01:29:56;;;;;;;5.80;4.10;;;;;;;20.92;53.52;101058.91;696250;28;1189;-43
2022/08/12 01:30:17;;;;;;;5.72;4.20;;;;;;;20.91;52.94;101061.66;697960;28;1188;-43
2022/08/12 01:30:41;;;;;;;6.07;4.40;;;;;;;20.93;52.60;101057.13;698462;28;4523;-43
2022/08/12 01:31:03;;;;;;;5.28;4.45;;;;;;;20.94;53.52;101058.84;698731;28;1546;-44
2022/08/12 01:31:26;;;;;;;5.45;4.45;;;;;;;20.92;53.12;101060.69;696484;28;1362;-44
2022/08/12 01:31:48;;;;;;;5.07;4.40;;;;;;;20.91;52.78;101061.66;698460;28;1281;-45
2022/08/12 01:32:11;;;;;;;5.20;4.20;;;;;;;20.91;52.79;101064.31;698552;28;1178;-43
2022/08/12 01:32:36;;;;;;;5.85;4.35;;;;;;;20.88;52.15;101065.28;697919;28;1435;-43
2022/08/12 01:32:58;;;;;;;5.95;4.18;;;;;;;20.86;51.78;101059.16;696818;28;1319;-43
2022/08/12 01:33:20;;;;;;;5.35;4.35;;;;;;;20.87;51.46;101057.38;697229;28;1523;-44
2022/08/12 01:34:09;;;;;;;6.57;4.50;;;;;;;20.87;51.84;101057.38;698070;28;4330;-44
2022/08/12 01:34:32;;;;;;;7.18;4.20;;;;;;;20.87;52.69;101057.38;691862;28;1676;-43
2022/08/12 01:35:09;;;;;;;7.30;4.22;;;;;;;20.86;52.53;101051.19;700583;28;1320;-44
2022/08/12 01:35:31;;;;;;;4.80;4.30;;;;;;;20.86;52.20;101047.69;698318;28;1121;-43
2022/08/12 01:35:59;;;;;;;6.50;4.32;;;;;;;20.86;52.14;101060.97;700946;28;1242;-43
2022/08/12 01:36:24;;;;;;;6.95;4.40;;;;;;;20.86;52.02;101063.63;699500;28;1404;-44
2022/08/12 01:36:49;;;;;;;7.28;4.18;;;;;;;20.85;51.76;101053.91;699351;28;4524;-43
2022/08/12 01:37:12;;;;;;;6.03;4.45;;;;;;;20.86;51.76;101061.81;695541;28;1230;-44
2022/08/12 01:37:46;;;;;;;5.75;4.40;;;;;;;20.85;52.20;101061.88;697339;28;1321;-43
2022/08/12 01:38:10;;;;;;;6.10;4.50;;;;;;;20.85;51.94;101060.09;696448;28;1238;-44
2022/08/12 01:38:33;;;;;;;5.80;4.38;;;;;;;20.86;52.38;101064.47;697302;28;1470;-43
2022/08/12 01:38:56;;;;;;;6.50;4.18;;;;;;;20.87;52.86;101062.69;697466;28;1214;-43
2022/08/12 01:39:16;;;;;;;5.10;4.32;;;;;;;20.84;52.30;101058.38;696980;28;1365;-44
2022/08/12 01:39:42;;;;;;;5.90;4.50;;;;;;;20.84;52.16;101058.38;697012;28;1380;-43
2022/08/12 01:40:03;;;;;;;5.70;4.40;;;;;;;20.85;51.75;101061.88;698681;28;4698;-45
2022/08/12 01:40:30;;;;;;;6.15;4.32;;;;;;;20.85;52.35;101064.53;695934;28;1305;-44
2022/08/12 01:40:51;;;;;;;5.72;4.03;;;;;;;20.84;52.29;101062.84;693981;28;1218;-43
2022/08/12 01:41:17;;;;;;;5.22;4.20;;;;;;;20.83;52.46;101061.94;694159;28;1232;-45
2022/08/12 01:41:46;;;;;;;5.15;4.40;;;;;;;20.83;52.45;101063.75;693633;28;1377;-44
2022/08/12 01:42:08;;;;;;;6.30;4.38;;;;;;;20.83;52.78;101061.94;692967;28;1147;-45
2022/08/12 01:42:40;;;;;;;5.95;4.40;;;;;;;20.83;52.14;101063.75;697313;28;1221;-45
2022/08/12 01:43:12;;;;;;;6.80;4.43;;;;;;;20.82;52.41;101064.66;699499;28;4878;-44
2022/08/12 01:43:33;;;;;;;6.03;4.53;;;;;;;20.79;52.22;101059.50;696522;28;1242;-46
2022/08/12 01:43:59;;;;;;;6.07;4.38;;;;;;;20.77;52.21;101059.56;696783;28;1388;-46
2022/08/12 01:44:21;;;;;;;6.82;4.38;;;;;;;20.76;52.57;101060.47;695956;28;1103;-44
2022/08/12 01:44:43;;;;;;;7.40;4.60;;;;;;;20.75;52.52;101056.97;696219;28;1264;-45
2022/08/12 01:45:05;;;;;;;5.85;4.28;;;;;;;20.74;52.22;101057.88;696979;28;1249;-43
2022/08/12 01:45:28;;;;;;;6.25;4.32;;;;;;;20.74;52.30;101057.88;698594;28;1195;-44
2022/08/12 01:45:51;;;;;;;6.28;4.30;;;;;;;20.75;52.42;101056.09;698728;28;4318;-43
2022/08/12 01:46:49;;;;;;;6.50;4.32;;;;;;;20.74;52.47;101062.31;697525;28;1472;-46
2022/08/12 01:47:26;;;;;;;7.00;4.50;;;;;;;20.70;52.96;101066.91;699584;28;1129;-44
2022/08/12 01:48:02;;;;;;;5.70;4.60;;;;;;;20.68;53.19;101058.13;700064;28;1242;-43
2022/08/12 01:48:48;;;;;;;5.15;4.20;;;;;;;20.68;53.13;101063.44;699521;28;1320;-46
2022/08/12 01:49:32;;;;;;;7.03;4.28;;;;;;;20.66;54.92;101061.75;697949;28;4777;-44
2022/08/12 01:50:25;;;;;;;7.00;4.47;;;;;;;20.66;53.93;101059.97;698838;28;1237;-45
2022/08/12 01:50:57;;;;;;;7.70;4.70;;;;;;;20.64;53.98;101060.94;699786;28;1245;-44
2022/08/12 01:51:41;;;;;;;6.45;4.35;;;;;;;20.63;53.66;101062.75;698828;28;1364;-45
2022/08/12 01:52:05;;;;;;;6.82;4.50;;;;;;;20.62;52.83;101061.00;698730;28;5015;-44
2022/08/12 01:52:54;;;;;;;6.50;4.32;;;;;;;20.62;52.92;101052.19;699884;28;1289;-45
2022/08/12 01:53:19;;;;;;;6.97;4.50;;;;;;;20.61;52.81;101061.06;699224;28;1234;-43
2022/08/12 01:53:58;;;;;;;6.95;4.53;;;;;;;20.61;52.88;101058.41;700451;28;1396;-46
2022/08/12 01:54:21;;;;;;;6.53;4.13;;;;;;;20.66;53.08;101061.75;699799;28;1202;-46
2022/08/12 01:54:43;;;;;;;5.63;3.95;;;;;;;20.65;52.50;101052.91;698060;28;4488;-44
2022/08/12 01:55:06;;;;;;;5.40;4.38;;;;;;;20.65;52.94;101052.06;697525;28;1186;-44
2022/08/12 01:55:32;;;;;;;7.05;4.50;;;;;;;20.65;52.77;101057.38;697657;28;1142;-46
2022/08/12 01:55:53;;;;;;;7.07;4.60;;;;;;;20.64;52.88;101053.81;695613;28;1222;-43
2022/08/12 01:56:15;;;;;;;6.35;4.50;;;;;;;20.62;53.38;101058.34;693506;28;1099;-44
2022/08/12 01:57:01;;;;;;;6.10;4.50;;;;;;;20.62;53.12;101047.72;693119;28;3254;-44
2022/08/12 01:57:31;;;;;;;6.93;4.40;;;;;;;20.59;53.04;101053.19;693422;28;1114;-44
2022/08/12 01:58:10;;;;;;;6.03;4.50;;;;;;;20.57;53.20;101055.91;695514;28;4520;-44
2022/08/12 01:59:48;;;;;;;7.13;4.60;;;;;;;20.54;54.27;101055.13;699202;28;1368;-43
2022/08/12 02:00:12;;;;;;;6.38;4.40;;;;;;;20.52;53.68;101054.31;699348;28;1095;-44
2022/08/12 02:00:50;;;;;;;5.70;4.53;;;;;;;20.52;54.00;101051.66;698344;28;1261;-44
2022/08/12 02:01:11;;;;;;;5.07;4.22;;;;;;;20.51;54.15;101055.28;698750;28;4736;-44
2022/08/12 02:01:38;;;;;;;5.57;4.18;;;;;;;20.49;54.02;101047.38;699514;28;1242;-45
2022/08/12 02:02:04;;;;;;;5.85;4.25;;;;;;;20.46;53.45;101052.78;699730;28;1300;-46
2022/08/12 02:02:38;;;;;;;6.82;4.30;;;;;;;20.46;53.75;101051.94;699496;28;1082;-43
2022/08/12 02:03:30;;;;;;;6.40;4.35;;;;;;;20.46;53.73;101050.13;699316;28;1415;-44
2022/08/12 02:11:18;;;;;;;5.93;4.35;;;;;;;20.25;56.44;101057.16;698777;28;4768;-44
2022/08/12 02:11:55;;;;;;;5.78;4.30;;;;;;;20.20;55.69;101054.69;697627;28;1277;-43
2022/08/12 02:12:25;;;;;;;6.60;4.23;;;;;;;20.19;56.04;101052.94;699058;28;1066;-45
2022/08/12 02:13:09;;;;;;;5.95;4.32;;;;;;;20.18;55.97;101053.88;698805;28;1325;-45
2022/08/12 02:13:42;;;;;;;5.68;4.40;;;;;;;20.16;55.96;101053.09;699984;28;1177;-44
2022/08/12 02:14:16;;;;;;;5.78;4.40;;;;;;;20.12;56.07;101050.59;700063;28;1297;-43
2022/08/12 02:15:01;;;;;;;5.65;4.28;;;;;;;20.04;56.31;101051.75;699342;28;1127;-45
2022/08/12 02:15:36;;;;;;;5.75;4.53;;;;;;;20.03;56.63;101055.31;699346;28;1088;-43
2022/08/12 02:16:06;;;;;;;5.88;4.70;;;;;;;20.02;56.65;101058.03;700275;28;4356;-45
2022/08/12 02:16:45;;;;;;;5.40;4.35;;;;;;;20.02;56.68;101061.56;700343;28;1408;-45
2022/08/12 02:17:33;;;;;;;5.07;4.30;;;;;;;19.96;57.24;101059.13;701352;28;1388;-44
2022/08/12 02:18:06;;;;;;;5.68;4.40;;;;;;;19.94;57.18;101061.00;701067;28;1305;-43
2022/08/12 02:18:38;;;;;;;5.38;4.60;;;;;;;19.93;57.31;101064.56;699789;28;1384;-45
2022/08/12 02:19:17;;;;;;;5.32;4.30;;;;;;;19.88;57.72;101056.78;700782;28;4491;-44
2022/08/12 02:19:38;;;;;;;6.60;4.40;;;;;;;19.87;57.70;101064.81;700460;28;1245;-44
2022/08/12 02:20:16;;;;;;;5.73;4.40;;;;;;;19.84;57.73;101063.13;700756;28;1257;-43
2022/08/12 02:20:52;;;;;;;6.00;4.40;;;;;;;19.83;57.44;101068.50;700341;28;1185;-45
2022/08/12 02:21:29;;;;;;;6.82;4.68;;;;;;;19.79;57.68;101064.19;697581;28;1062;-44
2022/08/12 02:22:18;;;;;;;6.25;4.45;;;;;;;19.73;58.14;101063.50;698433;28;4438;-44
2022/08/12 02:22:43;;;;;;;6.20;4.63;;;;;;;19.69;58.47;101061.88;699342;28;1110;-46
2022/08/12 02:23:06;;;;;;;5.80;4.70;;;;;;;19.68;58.96;101060.13;696202;28;2934;-45
2022/08/12 02:23:27;;;;;;;5.97;4.57;;;;;;;19.64;58.22;101062.97;695967;28;1151;-44
2022/08/12 02:23:48;;;;;;;5.40;4.60;;;;;;;19.64;58.17;101063.81;693604;28;1584;-44
2022/08/12 02:24:14;;;;;;;5.18;4.53;;;;;;;19.63;58.21;101066.53;693574;28;1234;-44
2022/08/12 02:24:37;;;;;;;5.70;4.38;;;;;;;19.60;58.48;101061.34;693774;28;1257;-45
2022/08/12 02:25:07;;;;;;;5.85;4.65;;;;;;;19.56;58.67;101063.22;695224;28;4865;-44
2022/08/12 02:25:37;;;;;;;7.10;4.80;;;;;;;19.54;58.76;101057.97;694086;28;843;-43
2022/08/12 02:26:03;;;;;;;5.45;4.65;;;;;;;19.53;58.93;101060.69;696605;28;1281;-44
2022/08/12 02:26:29;;;;;;;5.82;4.68;;;;;;;19.50;58.96;101066.97;695691;28;4957;-44
2022/08/12 02:26:51;;;;;;;6.47;4.63;;;;;;;19.50;58.66;101071.41;696566;28;978;-44
2022/08/12 02:27:14;;;;;;;6.40;4.70;;;;;;;19.51;58.62;101067.84;697733;28;1091;-44
2022/08/12 02:27:38;;;;;;;6.85;4.95;;;;;;;19.51;59.01;101067.84;699286;28;1269;-44
2022/08/12 02:28:00;;;;;;;7.65;4.80;;;;;;;19.49;59.11;101070.53;700576;28;6195;-44
2022/08/12 02:28:20;;;;;;;7.35;4.90;;;;;;;19.48;59.76;101067.94;699159;28;1088;-44
2022/08/12 02:28:41;;;;;;;6.03;4.57;;;;;;;19.46;59.90;101069.78;700413;28;1206;-45
2022/08/12 02:29:02;;;;;;;5.50;4.50;;;;;;;19.45;60.16;101068.06;700290;28;1335;-44
2022/08/12 02:29:23;;;;;;;8.52;4.60;;;;;;;19.43;60.16;101072.56;700389;28;1075;-46
2022/08/12 02:29:44;;;;;;;6.95;4.63;;;;;;;19.45;59.37;101073.34;700720;28;1218;-44
2022/08/12 02:30:07;;;;;;;6.53;4.70;;;;;;;19.43;60.04;101073.41;698641;28;1181;-44
2022/08/12 02:30:30;;;;;;;7.38;4.80;;;;;;;19.44;59.80;101071.59;700789;28;7204;-44
2022/08/12 02:30:51;;;;;;;6.63;4.85;;;;;;;19.43;60.17;101076.06;695296;28;6912;-43
2022/08/12 02:31:13;;;;;;;7.85;4.90;;;;;;;19.39;60.17;101074.44;698885;28;6887;-44
2022/08/12 02:31:36;;;;;;;6.63;4.63;;;;;;;19.40;59.97;101076.19;697659;28;5489;-45
2022/08/12 02:31:58;;;;;;;7.97;5.00;;;;;;;19.40;59.99;101077.03;699448;28;1645;-43
2022/08/12 02:32:19;;;;;;;5.97;5.03;;;;;;;19.38;60.40;101073.59;699066;28;1027;-45
2022/08/12 02:32:43;;;;;;;5.53;4.97;;;;;;;19.38;60.22;101078.88;699321;28;5980;-44
2022/08/12 02:33:05;;;;;;;5.95;4.75;;;;;;;19.35;60.66;101081.63;699901;28;1385;-44
2022/08/12 02:33:26;;;;;;;5.65;4.82;;;;;;;19.30;60.77;101080.03;698765;28;1217;-44
2022/08/12 02:33:48;;;;;;;6.20;4.80;;;;;;;19.32;60.83;101078.22;700896;28;1383;-45
2022/08/12 02:34:08;;;;;;;6.28;5.00;;;;;;;19.32;60.81;101075.56;697572;28;4246;-43
2022/08/12 02:34:30;;;;;;;7.00;4.87;;;;;;;19.37;60.62;101076.25;699378;28;895;-45
2022/08/12 02:34:51;;;;;;;6.30;4.80;;;;;;;19.36;60.35;101082.50;699123;28;5549;-43
2022/08/12 02:35:19;;;;;;;5.97;4.88;;;;;;;19.37;61.54;101077.16;695287;28;1149;-45
2022/08/12 02:35:39;;;;;;;6.47;4.90;;;;;;;19.40;60.42;101084.97;695793;28;1211;-43
2022/08/12 02:36:03;;;;;;;7.13;4.70;;;;;;;19.40;59.93;101082.34;695979;28;1202;-44
2022/08/12 02:36:24;;;;;;;7.45;4.65;;;;;;;19.35;60.31;101084.28;696170;28;1356;-44
2022/08/12 02:36:46;;;;;;;6.68;4.70;;;;;;;19.32;60.70;101078.22;697148;28;1201;-44
2022/08/12 02:37:09;;;;;;;6.13;4.90;;;;;;;19.26;60.68;101081.97;697322;28;4352;-44
2022/08/12 02:37:30;;;;;;;6.97;5.10;;;;;;;19.27;60.44;101083.66;699221;28;1446;-44
2022/08/12 02:37:54;;;;;;;8.55;4.95;;;;;;;19.25;61.55;101082.88;699418;28;1142;-45
2022/08/12 02:38:16;;;;;;;6.53;4.70;;;;;;;19.25;61.13;101076.72;698605;28;1035;-45
2022/08/12 02:38:40;;;;;;;6.70;4.70;;;;;;;19.28;60.63;101085.41;698603;28;1071;-44
2022/08/12 02:39:02;;;;;;;8.10;4.88;;;;;;;19.23;61.28;101085.56;695761;28;5587;-43
2022/08/12 02:39:27;;;;;;;5.70;4.82;;;;;;;19.22;62.90;101080.34;696093;28;1275;-45
2022/08/12 02:39:48;;;;;;;6.95;4.90;;;;;;;19.28;61.77;101082.75;697208;28;1225;-43
2022/08/12 02:40:11;;;;;;;6.22;4.93;;;;;;;19.30;61.10;101080.03;695289;28;4454;-44
2022/08/12 02:40:35;;;;;;;5.78;4.82;;;;;;;19.30;61.00;101080.03;696794;28;1261;-47
2022/08/12 02:41:02;;;;;;;6.40;4.78;;;;;;;19.32;61.46;101079.09;697368;28;1267;-44
2022/08/12 02:41:25;;;;;;;6.07;4.85;;;;;;;19.28;62.38;101084.56;697309;28;1079;-44
2022/08/12 02:41:47;;;;;;;5.60;4.78;;;;;;;19.26;63.01;101086.38;694022;28;1231;-43
2022/08/12 02:42:09;;;;;;;7.07;4.78;;;;;;;19.24;62.63;101086.44;692687;28;1252;-46
2022/08/12 02:42:32;;;;;;;6.78;4.85;;;;;;;19.25;61.95;101080.22;694321;28;1201;-44
2022/08/12 02:43:11;;;;;;;6.13;4.80;;;;;;;19.26;61.95;101084.59;697039;28;4360;-44
2022/08/12 02:43:49;;;;;;;6.65;4.80;;;;;;;19.16;62.81;101083.16;693896;28;1233;-45
2022/08/12 02:44:13;;;;;;;6.28;4.60;;;;;;;19.16;62.86;101086.72;696206;28;1221;-45
2022/08/12 02:44:39;;;;;;;7.18;4.85;;;;;;;19.18;62.47;101090.16;696239;28;1311;-44
2022/08/12 02:45:08;;;;;;;8.02;5.00;;;;;;;19.17;62.64;101084.91;695898;28;1281;-43
2022/08/12 02:45:40;;;;;;;6.30;4.95;;;;;;;19.13;63.97;101080.63;698703;28;1106;-43
2022/08/12 02:46:08;;;;;;;6.15;4.80;;;;;;;19.15;62.95;101076.13;697990;28;4399;-43
2022/08/12 02:46:31;;;;;;;5.90;4.70;;;;;;;19.14;63.19;101072.63;699364;28;1273;-43
2022/08/12 02:46:55;;;;;;;5.80;4.78;;;;;;;19.14;62.54;101080.56;699949;28;1138;-44
2022/08/12 02:47:19;;;;;;;6.85;4.63;;;;;;;19.17;63.00;101075.16;696473;28;1925;-44
2022/08/12 02:47:41;;;;;;;6.72;4.72;;;;;;;19.20;62.77;101082.16;696024;28;5560;-44
2022/08/12 02:48:06;;;;;;;6.88;4.80;;;;;;;19.15;64.47;101079.66;693487;28;1254;-45
2022/08/12 02:48:32;;;;;;;6.13;4.57;;;;;;;19.08;63.44;101079.91;693522;28;1513;-44
2022/08/12 02:49:16;;;;;;;6.03;4.68;;;;;;;19.02;64.07;101078.34;693238;28;4565;-44
2022/08/12 02:49:45;;;;;;;6.15;4.70;;;;;;;19.01;63.62;101076.59;694420;28;1372;-43
2022/08/12 02:50:06;;;;;;;6.15;4.90;;;;;;;19.01;63.50;101079.25;696956;28;1320;-44
2022/08/12 02:50:32;;;;;;;7.70;4.90;;;;;;;18.99;64.80;101070.50;696018;28;1197;-44
2022/08/12 02:50:56;;;;;;;6.03;4.55;;;;;;;18.85;65.18;101078.88;697437;28;1130;-46
2022/08/12 02:51:22;;;;;;;5.88;4.93;;;;;;;18.76;64.80;101079.16;697473;28;1249;-43
2022/08/12 02:51:45;;;;;;;6.50;4.72;;;;;;;18.73;64.88;101080.13;699027;28;1198;-43
2022/08/12 02:52:07;;;;;;;6.78;5.10;;;;;;;18.75;65.03;101074.78;698405;28;4427;-44
2022/08/12 02:52:29;;;;;;;7.25;4.88;;;;;;;18.76;64.84;101084.47;699305;28;1617;-44
2022/08/12 02:52:52;;;;;;;6.50;4.50;;;;;;;18.75;65.00;101078.31;698787;28;1280;-44
2022/08/12 02:53:15;;;;;;;6.10;4.60;;;;;;;18.71;66.14;101077.53;699675;28;1134;-43
2022/08/12 02:53:37;;;;;;;7.13;4.70;;;;;;;18.67;66.74;101075.03;696386;28;1352;-44
2022/08/12 02:54:00;;;;;;;6.78;4.88;;;;;;;18.60;65.93;101081.44;697165;28;1225;-44
2022/08/12 02:54:22;;;;;;;5.88;4.90;;;;;;;18.55;66.32;101077.16;697338;28;1123;-44
2022/08/12 02:54:46;;;;;;;5.63;4.80;;;;;;;18.60;66.58;101078.81;697172;28;1314;-44
2022/08/12 02:55:18;;;;;;;5.28;4.60;;;;;;;18.60;66.31;101076.16;694923;28;4854;-44
2022/08/12 02:55:39;;;;;;;6.53;4.88;;;;;;;18.56;67.52;101072.72;698991;28;1139;-44
2022/08/12 02:56:04;;;;;;;6.03;4.68;;;;;;;18.51;67.04;101075.53;699766;28;1371;-44
2022/08/12 02:56:27;;;;;;;5.55;4.70;;;;;;;18.55;66.89;101086.88;699270;28;1217;-46
2022/08/12 02:56:47;;;;;;;6.05;4.82;;;;;;;18.57;66.59;101086.81;700134;28;1439;-45
2022/08/12 02:57:08;;;;;;;7.00;4.93;;;;;;;18.57;66.45;101089.47;695952;28;1412;-43
2022/08/12 02:57:30;;;;;;;5.78;4.82;;;;;;;18.57;66.21;101079.75;697164;28;1301;-44
2022/08/12 02:57:51;;;;;;;5.55;4.85;;;;;;;18.58;68.22;101077.97;697368;28;1202;-44
2022/08/12 02:58:13;;;;;;;5.95;5.00;;;;;;;18.53;68.59;101083.41;697512;28;5749;-45
2022/08/12 02:58:34;;;;;;;6.13;4.70;;;;;;;18.49;68.34;101085.28;696824;28;1087;-44
2022/08/12 02:58:57;;;;;;;6.80;5.00;;;;;;;18.44;67.14;101075.75;697866;28;1288;-43
2022/08/12 02:59:20;;;;;;;6.47;4.80;;;;;;;18.47;67.43;101089.78;699928;28;1200;-45
2022/08/12 02:59:42;;;;;;;7.07;5.07;;;;;;;18.46;67.27;101081.88;697307;28;1290;-44
2022/08/12 03:00:04;;;;;;;6.80;4.70;;;;;;;18.45;68.01;101085.44;696569;28;1234;-44
2022/08/12 03:00:25;;;;;;;6.63;4.80;;;;;;;18.50;67.74;101084.38;696574;28;1202;-44
2022/08/12 03:00:46;;;;;;;6.30;4.80;;;;;;;18.52;67.43;101084.31;696204;28;1300;-44
2022/08/12 03:01:10;;;;;;;6.43;4.80;;;;;;;18.55;66.77;101073.63;695963;28;4285;-44
2022/08/12 03:01:33;;;;;;;7.00;4.78;;;;;;;18.53;66.78;101072.84;694997;28;1269;-44
2022/08/12 03:01:58;;;;;;;6.80;4.90;;;;;;;18.51;67.14;101074.63;696611;28;1299;-48
2022/08/12 03:02:22;;;;;;;6.33;4.70;;;;;;;18.47;67.77;101079.19;698839;28;1099;-45
2022/08/12 03:02:44;;;;;;;5.90;4.78;;;;;;;18.43;68.74;101076.66;699766;28;1265;-43
2022/08/12 03:03:11;;;;;;;6.32;4.80;;;;;;;18.44;69.31;101084.59;699220;28;1343;-44
2022/08/12 03:03:33;;;;;;;6.45;5.07;;;;;;;18.41;69.74;101079.34;700670;28;1233;-43
2022/08/12 03:03:58;;;;;;;6.63;5.10;;;;;;;18.40;69.35;101074.13;699397;28;4443;-45